Time;durP1;ratioP1;P1;durP2;ratioP2;P2;SDS_P1;SDS_P2;PMS_P1;PMS_P2;Temp;Humidity;BMP_temperature;BMP_pressure;BME280_temperature;BME280_humidity;BME280_pressure;Samples;Min_cycle;Max_cycle;Signal;HPM_P1;HPM_P2
2022/08/22 04:53:08;;;;;;;;;4.00;4.00;;;;;21.53;51.98;101237.59;2787351;23;46017;-80
2022/08/22 04:54:30;;;;;;;;;5.00;4.00;;;;;21.55;51.74;101254.41;2379228;28;45524;-80
2022/08/22 04:55:57;;;;;;;;;4.25;2.25;;;;;21.53;52.04;101253.63;2382644;28;46406;-80
2022/08/22 04:57:21;;;;;;;;;5.50;4.50;;;;;21.52;52.15;101256.44;2379697;28;45216;-80
2022/08/22 04:58:47;;;;;;;;;4.25;3.00;;;;;21.52;52.10;101261.78;2383237;28;45408;-80
2022/08/22 05:00:02;;;;;;;;;4.25;3.00;;;;;21.51;52.45;101271.63;2379034;28;45282;-80
2022/08/22 05:01:25;;;;;;;;;6.00;4.50;;;;;21.51;52.08;101270.78;2370695;28;46164;-80
2022/08/22 05:02:43;;;;;;;;;3.75;3.75;;;;;21.51;52.15;101271.63;2378222;28;44610;-80
2022/08/22 05:03:58;;;;;;;;;3.50;3.50;;;;;21.51;51.84;101273.47;2371392;28;46296;-80
2022/08/22 05:05:18;;;;;;;;;4.00;4.00;;;;;21.50;52.23;101269.94;2376564;28;45409;-80
2022/08/22 05:06:33;;;;;;;;;5.25;3.75;;;;;21.49;51.99;101268.22;2383872;28;45351;-81
2022/08/22 05:07:51;;;;;;;;;4.25;3.75;;;;;21.48;51.75;101263.84;2383250;28;45444;-80
2022/08/22 05:09:11;;;;;;;;;4.00;4.00;;;;;21.46;52.41;101261.25;2383813;28;45342;-79
2022/08/22 05:10:26;;;;;;;;;8.25;4.50;;;;;21.48;52.25;101261.16;2382802;28;44808;-80
2022/08/22 05:11:39;;;;;;;;;5.00;4.25;;;;;21.48;52.07;101272.69;2383741;28;45355;-81
2022/08/22 05:13:01;;;;;;;;;3.25;3.25;;;;;21.48;52.28;101283.38;2383188;28;44752;-80
2022/08/22 05:14:25;;;;;;;;;4.25;3.75;;;;;21.50;51.92;101290.47;2381233;28;46602;-80
2022/08/22 05:15:41;;;;;;;;;4.00;3.00;;;;;21.49;51.89;101294.94;2383749;28;45386;-80
2022/08/22 05:16:55;;;;;;;;;7.00;5.00;;;;;21.51;51.95;101305.56;2383758;28;46355;-80
2022/08/22 05:18:11;;;;;;;;;6.00;3.00;;;;;21.48;51.87;101304.78;2379371;28;45573;-80
2022/08/22 05:19:33;;;;;;;;;4.00;4.00;;;;;21.51;51.87;101308.22;2371121;28;47345;-80
2022/08/22 05:20:48;;;;;;;;;3.25;3.25;;;;;21.49;51.54;101300.28;2378268;28;45531;-80
2022/08/22 05:22:00;;;;;;;;;4.00;4.00;;;;;21.48;51.61;101288.72;2379916;28;45434;-81
2022/08/22 05:23:23;;;;;;;;;3.00;3.00;;;;;21.51;52.31;101287.66;2380165;28;45403;-81
2022/08/22 05:24:42;;;;;;;;;4.00;3.50;;;;;21.52;52.20;101281.38;2381398;28;46220;-81
2022/08/22 05:25:58;;;;;;;;;5.00;3.75;;;;;21.53;52.23;101280.38;2383748;28;45271;-81
2022/08/22 05:27:19;;;;;;;;;6.00;3.25;;;;;21.55;52.49;101278.47;2382631;28;46500;-81
2022/08/22 05:28:36;;;;;;;;;4.25;3.00;;;;;21.57;52.08;101284.56;2381650;28;45851;-81
2022/08/22 05:29:52;;;;;;;;;5.25;4.50;;;;;21.59;52.34;101287.97;2383605;28;45559;-82
2022/08/22 05:31:12;;;;;;;;;6.75;4.00;;;;;21.62;52.09;101283.38;2383696;28;45511;-81
2022/08/22 05:32:29;;;;;;;;;4.00;4.00;;;;;21.63;51.79;101285.94;2382155;28;46254;-81
2022/08/22 05:33:47;;;;;;;;;4.00;4.00;;;;;21.65;52.30;101288.50;2383242;28;45053;-81
2022/08/22 05:35:02;;;;;;;;;5.00;4.00;;;;;21.66;52.57;101288.38;2379992;28;46342;-79
2022/08/22 05:36:21;;;;;;;;;4.50;3.00;;;;;21.67;51.70;101291.94;2383429;28;44718;-80
2022/08/22 05:37:43;;;;;;;;;4.00;4.00;;;;;21.70;52.02;101299.75;2383655;28;45540;-81
2022/08/22 05:38:59;;;;;;;;;5.75;4.25;;;;;21.69;52.58;101296.19;2383401;28;45468;-80
2022/08/22 05:40:19;;;;;;;;;3.50;3.50;;;;;21.73;52.42;101296.81;2383652;28;45361;-80
2022/08/22 05:41:35;;;;;;;;;5.00;4.00;;;;;21.76;51.89;101307.31;2380471;28;45474;-80
2022/08/22 05:42:46;;;;;;;;;4.00;4.00;;;;;21.78;52.50;101305.38;2383200;28;46454;-79
2022/08/22 05:43:57;;;;;;;;;7.50;5.00;;;;;21.81;52.07;101305.16;2383694;28;44618;-80
2022/08/22 05:45:08;;;;;;;;;7.75;5.00;;;;;21.85;52.04;101313.84;2383191;28;46158;-80
2022/08/22 05:46:29;;;;;;;;;5.50;3.50;;;;;21.88;51.58;101316.28;2383765;28;44764;-80
2022/08/22 05:47:44;;;;;;;;;3.00;2.25;;;;;21.89;51.84;101306.44;2382736;28;46642;-80
2022/08/22 05:49:01;;;;;;;;;5.25;4.00;;;;;21.91;51.26;101315.22;2378840;28;44893;-80
2022/08/22 05:50:55;;;;;;;;;5.00;4.50;;;;;21.94;51.02;101316.81;2382968;28;46459;-80
2022/08/22 05:52:05;;;;;;;;;4.25;4.25;;;;;21.95;51.44;101315.88;2354558;28;44793;-80
2022/08/22 05:53:28;;;;;;;;;5.00;5.00;;;;;21.94;51.81;101320.34;2382597;28;46506;-80
2022/08/22 05:54:54;;;;;;;;;4.25;4.25;;;;;21.95;51.55;101313.19;2383486;28;44802;-81
2022/08/22 05:56:30;;;;;;;;;4.75;3.00;;;;;21.94;50.82;101315.00;2383272;28;46592;-80
2022/08/22 05:57:45;;;;;;;;;7.25;5.50;;;;;21.94;51.15;101312.31;2381500;28;45472;-80
2022/08/22 05:59:14;;;;;;;;;5.25;4.75;;;;;21.95;51.27;101311.38;2380559;28;46306;-81
2022/08/22 06:00:31;;;;;;;;;6.75;4.50;;;;;21.96;51.29;101304.19;2380822;28;45243;-81
2022/08/22 06:02:03;;;;;;;;;7.50;5.00;;;;;21.96;51.41;101313.06;2382485;28;45603;-80
2022/08/22 06:03:13;;;;;;;;;3.25;3.25;;;;;21.97;51.57;101308.56;2383494;28;45417;-79
2022/08/22 06:04:30;;;;;;;;;5.00;4.75;;;;;21.97;51.38;101314.78;2383045;28;45422;-79
2022/08/22 06:05:45;;;;;;;;;7.00;5.00;;;;;21.98;51.30;101320.97;2383947;28;45451;-79
2022/08/22 06:07:05;;;;;;;;;6.00;6.00;;;;;21.98;51.57;101319.16;2380122;28;46403;-79
2022/08/22 06:08:30;;;;;;;;;5.00;4.25;;;;;21.99;50.88;101320.03;2376664;28;44690;-80
2022/08/22 06:09:46;;;;;;;;;4.25;4.25;;;;;22.01;51.28;101316.25;2376898;28;45556;-80
2022/08/22 06:11:04;;;;;;;;;4.25;4.25;;;;;22.01;51.54;101316.25;2384070;28;44836;-81
2022/08/22 06:12:30;;;;;;;;;5.00;4.50;;;;;22.02;51.62;101315.31;2383963;28;45352;-81
2022/08/22 06:13:50;;;;;;;;;5.50;3.25;;;;;22.05;51.82;101318.72;2381939;28;45742;-81
2022/08/22 06:15:22;;;;;;;;;6.75;6.00;;;;;22.08;51.66;101326.50;2376489;28;45632;-81
2022/08/22 06:16:43;;;;;;;;;4.00;4.00;;;;;22.10;51.43;101319.25;2384097;28;45441;-81
2022/08/22 06:18:00;;;;;;;;;4.50;3.00;;;;;22.11;51.64;101327.16;2382355;28;45557;-81
2022/08/22 06:19:16;;;;;;;;;9.00;3.00;;;;;22.13;51.25;101321.69;2379767;28;44740;-81
2022/08/22 06:20:38;;;;;;;;;6.25;4.50;;;;;22.16;51.79;101324.13;2373501;28;46047;-81
2022/08/22 06:21:52;;;;;;;;;4.25;4.00;;;;;22.17;50.83;101320.50;2377816;28;45471;-81
2022/08/22 06:23:06;;;;;;;;;6.75;4.00;;;;;22.19;51.19;101320.38;2382522;28;46546;-81
2022/08/22 06:24:23;;;;;;;;;7.00;5.25;;;;;22.20;51.62;101314.06;2377510;28;45216;-81
2022/08/22 06:25:40;;;;;;;;;4.75;4.00;;;;;22.22;51.54;101313.00;2385233;28;45414;-81
2022/08/22 06:26:56;;;;;;;;;3.25;3.25;;;;;22.23;51.25;101314.69;2376541;28;45445;-81
2022/08/22 06:28:11;;;;;;;;;5.00;4.00;;;;;22.28;51.20;101316.16;2383020;28;45330;-81
2022/08/22 06:29:42;;;;;;;;;6.50;5.00;;;;;22.30;51.72;101315.06;2385682;28;45382;-81
2022/08/22 06:30:55;;;;;;;;;3.25;3.25;;;;;22.32;52.63;101320.34;2385710;28;45332;-81
2022/08/22 06:32:21;;;;;;;;;5.50;4.75;;;;;22.34;51.73;101319.25;2385771;28;45160;-80
2022/08/22 06:33:37;;;;;;;;;5.75;4.75;;;;;22.39;52.14;101324.25;2384604;28;46289;-81
2022/08/22 06:34:50;;;;;;;;;4.75;4.75;;;;;22.41;51.54;101322.31;2385277;28;45489;-81
2022/08/22 06:36:29;;;;;;;;;4.25;3.00;;;;;22.43;50.98;101320.38;2385450;28;46372;-81
2022/08/22 06:37:44;;;;;;;;;5.00;4.25;;;;;22.43;51.03;101325.72;2385662;28;45264;-81
2022/08/22 06:39:22;;;;;;;;;5.50;5.50;;;;;22.45;51.06;101325.59;2384733;28;45354;-81
2022/08/22 06:40:33;;;;;;;;;6.00;5.25;;;;;22.45;50.92;101328.28;2383299;28;45459;-81
2022/08/22 06:41:55;;;;;;;;;3.00;3.00;;;;;22.45;50.75;101329.16;2378429;28;46129;-81
2022/08/22 06:43:06;;;;;;;;;4.50;4.50;;;;;22.44;51.14;101326.59;2382971;28;45465;-81
2022/08/22 06:44:31;;;;;;;;;5.50;3.50;;;;;22.46;50.97;101330.88;2379891;28;45434;-81
2022/08/22 06:45:41;;;;;;;;;5.00;5.00;;;;;22.48;50.68;101323.56;2385396;28;44702;-80
2022/08/22 06:46:57;;;;;;;;;5.75;3.00;;;;;22.48;50.68;101323.56;2383793;28;45487;-81
2022/08/22 06:48:07;;;;;;;;;4.25;4.00;;;;;22.53;51.11;101325.03;2385591;28;45244;-81
2022/08/22 06:49:21;;;;;;;;;4.25;4.25;;;;;22.52;51.46;101315.31;2385438;28;45463;-81
2022/08/22 06:50:35;;;;;;;;;4.75;3.75;;;;;22.54;51.38;101316.91;2385625;28;45290;-81
2022/08/22 06:51:47;;;;;;;;;6.00;5.75;;;;;22.56;51.21;101319.47;2384497;28;46089;-81
2022/08/22 06:53:16;;;;;;;;;4.50;3.50;;;;;22.58;50.29;101323.72;2369307;28;45317;-81
2022/08/22 06:54:32;;;;;;;;;8.00;5.00;;;;;22.57;50.50;101322.00;2373678;28;46103;-81
2022/08/22 06:55:48;;;;;;;;;5.00;5.00;;;;;22.59;50.84;101321.91;2384198;28;45363;-81
2022/08/22 06:56:59;;;;;;;;;6.75;5.50;;;;;22.59;51.04;101319.22;2385609;28;45271;-81
2022/08/22 06:58:17;;;;;;;;;7.50;5.00;;;;;22.60;51.10;101316.44;2376225;28;45458;-81
2022/08/22 06:59:31;;;;;;;;;6.50;4.75;;;;;22.64;51.32;101313.53;2376155;28;45285;-81
2022/08/22 07:00:42;;;;;;;;;5.00;3.75;;;;;22.68;51.09;101307.81;2376138;28;45306;-82
2022/08/22 07:02:28;;;;;;;;;3.75;3.75;;;;;22.70;51.51;101311.25;2382360;28;45278;-82
2022/08/22 07:03:46;;;;;;;;;6.00;4.25;;;;;22.75;50.83;101312.72;2382248;28;45540;-81
2022/08/22 07:04:56;;;;;;;;;3.00;3.00;;;;;22.77;51.00;101316.13;2381048;28;46427;-81
2022/08/22 07:06:13;;;;;;;;;6.75;4.75;;;;;22.81;50.70;101317.63;2374911;28;44651;-81
2022/08/22 07:07:26;;;;;;;;;4.75;4.00;;;;;22.85;50.41;101313.72;2375697;28;45356;-81
2022/08/22 07:08:36;;;;;;;;;8.75;5.75;;;;;22.86;50.50;101315.47;2380702;28;45308;-81
2022/08/22 07:09:50;;;;;;;;;6.50;4.00;;;;;22.90;50.64;101324.97;2376113;28;45244;-81
2022/08/22 07:11:16;;;;;;;;;4.00;4.00;;;;;22.92;50.36;101328.38;2376242;28;44792;-81
2022/08/22 07:12:29;;;;;;;;;5.00;3.25;;;;;22.95;49.90;101323.75;2383866;28;46591;-81
2022/08/22 07:13:48;;;;;;;;;4.50;4.00;;;;;22.97;50.59;101329.84;2385482;28;45243;-81
2022/08/22 07:15:09;;;;;;;;;4.25;3.50;;;;;23.00;50.21;101330.47;2376288;28;45478;-81
2022/08/22 07:16:42;;;;;;;;;6.75;4.00;;;;;23.02;49.89;101330.34;2381473;28;45529;-81
2022/08/22 07:17:58;;;;;;;;;5.00;4.25;;;;;23.01;49.60;101336.69;2385206;28;45362;-81
2022/08/22 07:19:31;;;;;;;;;4.75;3.25;;;;;23.01;49.93;101334.00;2380541;28;45198;-80
2022/08/22 07:20:48;;;;;;;;;4.00;3.00;;;;;23.01;50.03;101332.19;2385147;28;45471;-81
2022/08/22 07:22:10;;;;;;;;;4.00;3.50;;;;;23.04;50.60;101333.75;2385488;28;45270;-80
2022/08/22 07:23:32;;;;;;;;;7.00;3.75;;;;;23.07;50.69;101338.88;2384883;28;45392;-80
2022/08/22 07:24:50;;;;;;;;;5.00;4.25;;;;;23.09;50.06;101344.97;2378659;28;44601;-80
2022/08/22 07:26:16;;;;;;;;;5.50;5.00;;;;;23.12;49.46;101342.06;2378018;28;46759;-80
2022/08/22 07:27:37;;;;;;;;;9.00;4.75;;;;;23.14;49.33;101342.78;2377403;28;45271;-80
2022/08/22 07:29:05;;;;;;;;;5.00;4.25;;;;;23.16;50.42;101348.88;2381430;28;45372;-81
2022/08/22 07:30:17;;;;;;;;;5.75;4.75;;;;;23.19;50.12;101349.66;2375895;28;45305;-80
2022/08/22 07:31:41;;;;;;;;;4.75;4.25;;;;;23.21;49.59;101347.69;2378265;28;45763;-81
2022/08/22 07:33:00;;;;;;;;;8.25;6.00;;;;;23.24;49.88;101355.47;2379919;28;45378;-80
2022/08/22 07:34:38;;;;;;;;;7.75;5.00;;;;;23.25;49.88;101362.56;2383708;28;45784;-80
2022/08/22 07:35:57;;;;;;;;;8.50;5.00;;;;;23.25;49.41;101362.56;2377069;28;45169;-80
2022/08/22 07:37:21;;;;;;;;;5.50;4.75;;;;;23.21;49.15;101350.38;2383530;28;45301;-80
2022/08/22 07:38:41;;;;;;;;;3.75;3.75;;;;;23.22;49.96;101349.38;2371636;28;44889;-80
2022/08/22 07:39:59;;;;;;;;;3.00;3.00;;;;;23.22;49.92;101352.06;2370568;28;45442;-80
2022/08/22 07:41:42;;;;;;;;;5.00;4.75;;;;;23.24;49.17;101353.66;2385361;28;45156;-80
2022/08/22 07:42:57;;;;;;;;;3.00;2.75;;;;;23.23;48.86;101348.41;2385071;28;45647;-80
2022/08/22 07:44:17;;;;;;;;;4.00;3.25;;;;;23.24;49.60;101347.44;2384145;28;45220;-80
2022/08/22 07:45:39;;;;;;;;;9.25;5.00;;;;;23.25;49.43;101346.47;2375873;28;45530;-81
2022/08/22 07:46:57;;;;;;;;;5.00;4.00;;;;;23.26;49.66;101349.03;2383910;28;45456;-80
2022/08/22 07:48:26;;;;;;;;;5.00;4.25;;;;;23.28;49.08;101343.56;2385035;28;46523;-80
2022/08/22 07:49:51;;;;;;;;;6.50;4.75;;;;;23.26;49.26;101342.81;2376114;28;45228;-80
2022/08/22 07:51:34;;;;;;;;;7.00;4.50;;;;;23.29;49.53;101345.25;2384350;28;45422;-80
2022/08/22 07:52:46;;;;;;;;;4.00;4.00;;;;;23.31;49.62;101343.28;2384942;28;45329;-80
2022/08/22 07:54:08;;;;;;;;;3.00;3.00;;;;;23.32;49.13;101344.16;2384544;28;45369;-80
2022/08/22 07:55:21;;;;;;;;;2.25;2.25;;;;;23.33;49.00;101346.75;2385240;28;45264;-80
2022/08/22 07:56:41;;;;;;;;;5.00;4.00;;;;;23.34;48.88;101350.25;2379937;28;45503;-80
2022/08/22 07:57:57;;;;;;;;;3.00;3.00;;;;;23.37;49.69;101347.34;2378732;28;44770;-80
2022/08/22 07:59:13;;;;;;;;;6.00;6.00;;;;;23.40;48.98;101351.59;2382080;28;46406;-80
2022/08/22 08:00:24;;;;;;;;;6.50;4.50;;;;;23.41;49.08;101353.31;2385146;28;45426;-80
2022/08/22 08:01:36;;;;;;;;;7.25;5.00;;;;;23.42;49.37;101355.00;2383967;28;45478;-80
2022/08/22 08:03:00;;;;;;;;;7.50;4.00;;;;;23.42;49.16;101350.50;2385018;28;45238;-80
2022/08/22 08:04:18;;;;;;;;;5.25;4.25;;;;;23.43;49.36;101356.72;2384851;28;46375;-80
2022/08/22 08:05:34;;;;;;;;;6.00;5.00;;;;;23.42;49.40;101355.00;2385174;28;45222;-80
2022/08/22 08:06:51;;;;;;;;;4.25;3.25;;;;;23.43;49.47;101354.06;2378533;28;45349;-80
2022/08/22 08:08:08;;;;;;;;;5.00;5.00;;;;;23.42;49.07;101347.81;2379267;28;45252;-80
2022/08/22 08:09:19;;;;;;;;;6.00;5.00;;;;;23.43;49.54;101348.69;2374590;28;48315;-81
2022/08/22 08:10:35;;;;;;;;;8.75;4.00;;;;;23.44;49.50;101350.38;2378050;28;44677;-80
2022/08/22 08:11:50;;;;;;;;;6.25;5.00;;;;;23.46;49.41;101346.59;2384944;28;45483;-80
2022/08/22 08:13:16;;;;;;;;;5.25;4.25;;;;;23.51;49.55;101351.63;2385137;28;45242;-80
2022/08/22 08:14:27;;;;;;;;;9.25;5.50;;;;;23.51;49.29;101343.59;2385113;28;46866;-80
2022/08/22 08:15:41;;;;;;;;;6.00;5.25;;;;;23.55;49.42;101349.56;2384976;28;45242;-80
2022/08/22 08:17:11;;;;;;;;;6.00;6.00;;;;;23.57;49.21;101343.13;2383185;28;45335;-80
2022/08/22 08:18:25;;;;;;;;;6.00;6.00;;;;;23.58;49.14;101352.84;2385006;28;45187;-81
2022/08/22 08:19:40;;;;;;;;;6.75;5.00;;;;;23.59;49.12;101353.72;2375641;28;45294;-80
2022/08/22 08:20:56;;;;;;;;;6.25;5.50;;;;;23.62;49.38;101356.16;2382315;28;45402;-80
2022/08/22 08:22:08;;;;;;;;;4.75;4.75;;;;;23.64;48.78;101358.72;2383989;28;48275;-80
2022/08/22 08:23:20;;;;;;;;;4.00;4.00;;;;;23.67;49.30;101364.69;2384062;28;45172;-80
2022/08/22 08:24:38;;;;;;;;;5.00;4.00;;;;;23.67;48.97;101355.78;2384915;28;46214;-80
2022/08/22 08:25:58;;;;;;;;;5.25;3.00;;;;;23.70;48.54;101355.56;2384886;28;45262;-80
2022/08/22 08:28:50;;;;;;;;;2.50;2.25;;;;;23.75;48.70;101357.88;2378746;28;45433;-80
2022/08/22 08:30:10;;;;;;;;;5.25;3.00;;;;;23.76;48.54;101362.25;2384778;28;45439;-80
2022/08/22 08:31:27;;;;;;;;;8.25;6.75;;;;;23.80;48.33;101364.59;2385031;28;45219;-80
2022/08/22 08:32:41;;;;;;;;;5.75;4.50;;;;;23.81;48.89;101360.03;2384653;28;46289;-80
2022/08/22 08:34:02;;;;;;;;;5.00;4.00;;;;;23.83;48.50;101369.69;2384894;28;45212;-80
2022/08/22 08:35:21;;;;;;;;;6.25;4.00;;;;;23.88;48.75;101371.16;2384739;28;45560;-79
2022/08/22 08:36:38;;;;;;;;;5.25;5.25;;;;;23.88;48.55;101373.84;2381410;28;45316;-80
2022/08/22 08:38:15;;;;;;;;;5.75;4.50;;;;;23.90;49.20;101364.66;2379393;28;45339;-80
2022/08/22 08:39:40;;;;;;;;;5.25;5.00;;;;;23.93;49.04;101363.56;2374415;28;47530;-80
2022/08/22 08:41:11;;;;;;;;;4.00;4.00;;;;;23.97;48.59;101362.38;2374154;28;46417;-80
2022/08/22 08:42:24;;;;;;;;;6.75;4.50;;;;;24.00;49.06;101362.09;2380617;28;44676;-80
2022/08/22 08:44:21;;;;;;;;;4.75;4.00;;;;;24.02;48.87;101354.78;2384620;28;45514;-81
2022/08/22 08:46:09;;;;;;;;;4.50;4.50;;;;;24.08;48.28;101355.25;2365291;28;44864;-80
2022/08/22 08:47:59;;;;;;;;;3.75;1.00;;;;;24.09;48.67;101354.28;2384138;28;46435;-80
2022/08/22 08:49:13;;;;;;;;;3.25;3.25;;;;;24.10;48.44;101346.09;2379823;28;45449;-80
2022/08/22 08:50:27;;;;;;;;;7.75;5.00;;;;;24.11;48.68;101355.88;2384318;28;46519;-80
2022/08/22 08:52:10;;;;;;;;;3.50;3.00;;;;;24.13;48.22;101358.41;2384849;28;44598;-81
2022/08/22 08:53:39;;;;;;;;;4.25;3.25;;;;;24.10;48.42;101351.47;2384056;28;45664;-80
2022/08/22 08:55:17;;;;;;;;;3.00;3.00;;;;;24.08;47.99;101344.50;2384696;28;45220;-80
2022/08/22 08:56:36;;;;;;;;;4.50;4.25;;;;;24.07;48.29;101346.38;2377235;28;45441;-81
2022/08/22 08:58:10;;;;;;;;;4.25;4.25;;;;;24.08;48.28;101347.19;2380121;28;45176;-80
2022/08/22 08:59:29;;;;;;;;;4.00;4.00;;;;;24.10;48.19;101346.09;2384641;28;45621;-80
2022/08/22 09:01:10;;;;;;;;;4.00;4.00;;;;;24.05;48.50;101337.59;2381550;28;45159;-80
2022/08/22 09:02:32;;;;;;;;;3.25;3.25;;;;;24.06;48.00;101336.59;2377752;28;45650;-80
2022/08/22 09:03:51;;;;;;;;;3.00;3.00;;;;;24.08;48.43;101333.75;2382873;28;45376;-81
2022/08/22 09:05:11;;;;;;;;;4.50;4.50;;;;;24.09;48.06;101330.13;2384435;28;45410;-81
2022/08/22 09:06:27;;;;;;;;;6.75;5.00;;;;;24.09;48.25;101328.28;2384685;28;45406;-81
2022/08/22 09:07:50;;;;;;;;;2.00;2.00;;;;;24.13;48.02;101334.25;2467516;27;45392;-83
2022/08/22 09:09:23;;;;;;;;;2.25;2.25;;;;;24.12;47.97;101322.69;2459470;27;45269;-83
2022/08/22 09:10:56;;;;;;;;;5.75;3.25;;;;;24.15;48.19;101326.94;2458481;27;47102;-79
2022/08/22 09:12:24;;;;;;;;;2.25;2.25;;;;;24.15;47.99;101324.25;2459238;27;45324;-80
2022/08/22 09:14:11;;;;;;;;;5.25;3.75;;;;;24.16;48.00;101316.06;2459198;27;45481;-79
2022/08/22 09:15:41;;;;;;;;;5.25;4.00;;;;;24.17;48.08;101316.91;2459354;27;45335;-79
2022/08/22 09:17:19;;;;;;;;;6.00;5.00;;;;;24.17;47.76;101316.91;2459263;27;45397;-79
2022/08/22 09:18:57;;;;;;;;;4.75;4.00;;;;;24.12;47.81;101317.31;2459360;27;45139;-79
2022/08/22 09:20:46;;;;;;;;;5.00;4.00;;;;;24.13;47.88;101319.00;2458695;27;45554;-79
2022/08/22 09:21:59;;;;;;;;;4.75;3.75;;;;;24.14;48.10;101322.53;2456598;27;45706;-78
2022/08/22 09:23:16;;;;;;;;;6.00;3.00;;;;;24.17;47.99;101327.66;2457963;27;45464;-78
2022/08/22 09:24:48;;;;;;;;;4.25;4.00;;;;;24.18;47.90;101321.28;2450113;27;44779;-78
2022/08/22 09:26:03;;;;;;;;;3.00;3.00;;;;;24.19;48.02;101314.97;2450694;27;45444;-78
2022/08/22 09:27:39;;;;;;;;;4.25;3.50;;;;;24.22;47.67;101320.09;2452975;27;45485;-78
2022/08/22 09:29:06;;;;;;;;;5.50;4.25;;;;;24.22;47.59;101325.47;2451201;27;45347;-79
2022/08/22 09:30:20;;;;;;;;;3.25;3.25;;;;;24.23;47.44;101319.09;2449618;27;44723;-78
2022/08/22 09:31:38;;;;;;;;;6.25;4.00;;;;;24.23;47.86;101316.41;2455746;27;45523;-78
2022/08/22 09:33:27;;;;;;;;;5.00;5.00;;;;;24.24;47.80;101312.75;2457828;27;45254;-78
2022/08/22 09:35:07;;;;;;;;;1.00;1.00;;;;;24.25;47.44;101313.56;2428259;28;45374;-78
2022/08/22 09:36:29;;;;;;;;;5.25;4.00;;;;;24.22;47.53;101312.03;2424525;28;45444;-78
2022/08/22 09:38:00;;;;;;;;;5.00;2.00;;;;;24.20;47.44;101315.81;2428136;28;45429;-79
2022/08/22 09:39:23;;;;;;;;;2.00;2.00;;;;;24.17;47.21;101308.88;2428835;28;45284;-78
2022/08/22 09:40:48;;;;;;;;;5.25;2.00;;;;;24.15;47.58;101306.28;2449260;27;45395;-78
2022/08/22 09:42:22;;;;;;;;;2.00;2.00;;;;;24.17;47.84;101304.31;2458738;27;45164;-78
2022/08/22 09:43:49;;;;;;;;;4.25;3.75;;;;;24.16;47.46;101305.31;2449302;27;45268;-78
2022/08/22 09:45:21;;;;;;;;;3.75;3.75;;;;;24.19;47.60;101312.28;2448860;27;45314;-79
2022/08/22 09:46:51;;;;;;;;;3.50;2.25;;;;;24.18;47.62;101307.88;2448815;28;45704;-79
2022/08/22 09:48:08;;;;;;;;;3.25;2.00;;;;;24.20;47.66;101308.59;2449426;28;45197;-79
2022/08/22 09:49:47;;;;;;;;;3.25;2.00;;;;;24.20;47.29;101303.22;2457703;27;46432;-79
2022/08/22 09:51:10;;;;;;;;;4.75;3.00;;;;;24.22;47.45;101295.91;2458818;27;45515;-79
2022/08/22 09:52:52;;;;;;;;;2.00;2.00;;;;;24.22;47.28;101300.44;2458921;27;45556;-79
2022/08/22 09:54:34;;;;;;;;;0.75;0.75;;;;;24.21;47.17;101296.88;2459185;27;45477;-79
2022/08/22 09:55:55;;;;;;;;;3.25;2.50;;;;;24.22;47.12;101295.91;2457260;27;45435;-79
2022/08/22 09:57:25;;;;;;;;;5.50;3.75;;;;;24.23;47.26;101292.22;2457304;27;46394;-79
2022/08/22 09:58:38;;;;;;;;;2.75;2.75;;;;;24.26;47.28;101296.53;2458122;27;46088;-79
2022/08/22 09:59:57;;;;;;;;;3.75;2.75;;;;;24.31;47.29;101301.50;2458482;27;45298;-79
2022/08/22 10:01:17;;;;;;;;;5.00;3.00;;;;;24.33;47.44;101292.34;2458071;27;48328;-79
2022/08/22 10:02:40;;;;;;;;;2.75;2.75;;;;;24.36;47.29;101293.94;2465746;27;45396;-79
2022/08/22 10:04:06;;;;;;;;;2.25;2.25;;;;;24.40;47.20;101292.69;2462868;27;45412;-79
2022/08/22 10:05:28;;;;;;;;;2.50;2.50;;;;;24.40;47.15;101292.69;2456507;27;45452;-79
2022/08/22 10:06:47;;;;;;;;;2.00;2.00;;;;;24.42;47.11;101293.41;2458621;27;45662;-79
2022/08/22 10:08:27;;;;;;;;;4.25;4.00;;;;;24.44;47.07;101282.53;2458303;27;45656;-79
2022/08/22 10:09:46;;;;;;;;;4.25;2.50;;;;;24.46;46.90;101286.81;2440478;27;46747;-79
2022/08/22 10:11:20;;;;;;;;;4.75;3.75;;;;;24.46;47.36;101292.19;2456994;27;44793;-79
2022/08/22 10:12:41;;;;;;;;;4.25;3.25;;;;;24.47;47.18;101299.25;2458548;27;46339;-79
2022/08/22 10:13:58;;;;;;;;;3.75;3.75;;;;;24.47;46.82;101290.34;2458881;27;45222;-79
2022/08/22 10:15:22;;;;;;;;;5.00;4.00;;;;;24.49;46.95;101302.69;2454017;27;48024;-79
2022/08/22 10:16:40;;;;;;;;;2.00;2.00;;;;;24.52;46.88;101295.34;2458056;27;45258;-79
2022/08/22 10:18:03;;;;;;;;;3.00;3.00;;;;;24.52;46.90;101301.53;2457205;27;46555;-79
2022/08/22 10:19:25;;;;;;;;;4.25;4.00;;;;;24.54;47.26;101304.13;2446617;28;45529;-79
2022/08/22 10:20:53;;;;;;;;;2.50;2.50;;;;;24.54;46.66;101301.44;2448625;28;45507;-79
2022/08/22 10:22:04;;;;;;;;;4.00;3.25;;;;;24.58;46.93;101300.19;2444622;28;45403;-79
2022/08/22 10:23:47;;;;;;;;;3.75;2.75;;;;;24.60;47.34;101299.06;2441959;28;45391;-79
2022/08/22 10:25:29;;;;;;;;;2.50;2.50;;;;;24.61;46.65;101297.25;2442292;27;45283;-79
2022/08/22 10:26:47;;;;;;;;;4.00;3.00;;;;;24.60;46.58;101300.91;2441848;28;45592;-79
2022/08/22 10:28:15;;;;;;;;;3.00;3.00;;;;;24.59;46.58;101300.06;2448322;27;45180;-79
2022/08/22 10:30:00;;;;;;;;;4.00;4.00;;;;;24.60;47.13;101296.38;2446802;28;45369;-79
2022/08/22 10:31:28;;;;;;;;;3.00;3.00;;;;;24.61;46.91;101298.09;2442374;28;45203;-79
2022/08/22 10:32:45;;;;;;;;;2.75;2.75;;;;;24.63;46.58;101303.31;2447440;28;45745;-79
2022/08/22 10:34:13;;;;;;;;;2.50;2.50;;;;;24.65;46.97;101290.59;2443332;28;45349;-79
2022/08/22 10:35:37;;;;;;;;;3.00;3.00;;;;;24.67;46.94;101294.00;2452035;28;46155;-79
2022/08/22 10:36:57;;;;;;;;;3.00;2.00;;;;;24.71;47.42;101287.41;2442952;28;45301;-79
2022/08/22 10:38:20;;;;;;;;;2.25;2.00;;;;;24.73;47.19;101288.13;2449743;28;45444;-80
2022/08/22 10:39:46;;;;;;;;;2.00;2.00;;;;;24.77;46.99;101282.50;2448419;27;44596;-79
2022/08/22 10:41:39;;;;;;;;;3.75;3.00;;;;;24.84;46.36;101289.88;2445764;28;45730;-79
2022/08/22 10:42:59;;;;;;;;;2.50;2.50;;;;;24.86;46.54;101289.78;2438724;28;45255;-79
2022/08/22 10:44:22;;;;;;;;;3.00;2.25;;;;;24.89;46.44;101283.28;2444681;28;45381;-79
2022/08/22 10:45:36;;;;;;;;;4.00;2.75;;;;;24.89;46.70;101281.41;2450684;28;45435;-79
2022/08/22 10:46:56;;;;;;;;;6.00;3.00;;;;;24.93;45.94;101287.41;2444543;27;46667;-79
2022/08/22 10:48:29;;;;;;;;;4.00;3.00;;;;;24.91;46.02;101292.06;2447435;27;45313;-79
2022/08/22 10:50:14;;;;;;;;;2.00;2.00;;;;;24.90;46.22;101287.66;2450950;28;46969;-79
2022/08/22 10:51:44;;;;;;;;;4.50;3.25;;;;;24.88;46.51;101281.56;2450129;28;45457;-79
2022/08/22 10:54:50;;;;;;;;;3.00;3.00;;;;;24.93;46.37;101288.25;2442406;28;45196;-79
2022/08/22 10:56:12;;;;;;;;;2.75;2.75;;;;;24.98;46.36;101297.75;2448021;28;46227;-79
2022/08/22 10:57:38;;;;;;;;;2.00;2.00;;;;;24.99;46.93;101286.03;2451601;28;44551;-79
2022/08/22 10:58:58;;;;;;;;;3.00;3.00;;;;;25.02;46.93;101292.00;2451524;28;45255;-79
2022/08/22 11:00:16;;;;;;;;;2.00;2.00;;;;;25.04;46.61;101289.16;2446843;27;45180;-79
2022/08/22 11:01:32;;;;;;;;;3.75;3.00;;;;;25.06;46.59;101287.22;2443160;28;45522;-79
2022/08/22 11:02:52;;;;;;;;;4.00;3.00;;;;;25.08;46.68;101281.69;2448284;28;45152;-79
2022/08/22 11:04:11;;;;;;;;;2.50;2.25;;;;;25.08;46.72;101285.25;2446450;28;45302;-78
2022/08/22 11:05:29;;;;;;;;;4.00;2.25;;;;;25.09;46.93;101276.19;2447765;27;44839;-78
2022/08/22 11:07:17;;;;;;;;;2.50;2.50;;;;;25.10;46.70;101280.59;2448974;28;46751;-78
2022/08/22 11:08:33;;;;;;;;;1.75;1.75;;;;;25.13;46.21;101283.03;2428782;27;44795;-78
2022/08/22 11:09:53;;;;;;;;;3.00;3.00;;;;;25.12;47.20;101278.63;2450998;28;47027;-79
2022/08/22 11:11:07;;;;;;;;;3.25;2.25;;;;;25.14;46.76;101276.63;2446543;28;45465;-79
2022/08/22 11:12:35;;;;;;;;;3.00;2.00;;;;;25.18;46.50;101285.31;2465809;27;48262;-78
2022/08/22 11:13:48;;;;;;;;;2.50;2.00;;;;;25.22;47.02;101280.50;2452276;27;45366;-79
2022/08/22 11:15:13;;;;;;;;;2.25;2.25;;;;;25.22;46.86;101275.97;2450634;28;46307;-79
2022/08/22 11:16:35;;;;;;;;;2.75;2.75;;;;;25.26;47.13;101281.94;2451590;28;45183;-79
2022/08/22 11:18:03;;;;;;;;;5.00;2.50;;;;;25.30;46.40;101283.38;2449700;28;45462;-79